sensor_id;sensor_type;location;lat;lon;timestamp;temperature;humidity
5196;DHT22;2617;51.006;12.436;2024-03-22T00:03:55;6.00;99.90
5196;DHT22;2617;51.006;12.436;2024-03-22T00:08:57;6.00;99.90
5196;DHT22;2617;51.006;12.436;2024-03-22T00:14:01;6.00;99.90
5196;DHT22;2617;51.006;12.436;2024-03-22T00:19:02;5.90;99.90
5196;DHT22;2617;51.006;12.436;2024-03-22T00:24:04;5.90;99.90
5196;DHT22;2617;51.006;12.436;2024-03-22T00:29:07;5.90;99.90
5196;DHT22;2617;51.006;12.436;2024-03-22T00:34:09;5.80;99.90
5196;DHT22;2617;51.006;12.436;2024-03-22T00:39:11;5.80;99.90
5196;DHT22;2617;51.006;12.436;2024-03-22T00:44:14;5.70;99.90
5196;DHT22;2617;51.006;12.436;2024-03-22T00:49:16;5.70;99.90
5196;DHT22;2617;51.006;12.436;2024-03-22T00:54:19;5.60;99.90
5196;DHT22;2617;51.006;12.436;2024-03-22T00:59:22;5.40;99.90
5196;DHT22;2617;51.006;12.436;2024-03-22T01:04:25;5.20;99.90
5196;DHT22;2617;51.006;12.436;2024-03-22T01:09:28;5.20;99.90
5196;DHT22;2617;51.006;12.436;2024-03-22T01:14:31;5.00;99.90
5196;DHT22;2617;51.006;12.436;2024-03-22T01:19:33;5.00;99.90
5196;DHT22;2617;51.006;12.436;2024-03-22T01:24:36;5.00;99.90
5196;DHT22;2617;51.006;12.436;2024-03-22T01:29:38;5.00;99.90
5196;DHT22;2617;51.006;12.436;2024-03-22T01:34:41;5.00;99.90
5196;DHT22;2617;51.006;12.436;2024-03-22T01:39:44;5.00;99.90
5196;DHT22;2617;51.006;12.436;2024-03-22T01:44:46;5.00;99.90
5196;DHT22;2617;51.006;12.436;2024-03-22T01:49:49;5.00;99.90
5196;DHT22;2617;51.006;12.436;2024-03-22T01:54:52;5.10;99.90
5196;DHT22;2617;51.006;12.436;2024-03-22T01:59:55;5.20;99.90
5196;DHT22;2617;51.006;12.436;2024-03-22T02:04:57;5.20;99.90
5196;DHT22;2617;51.006;12.436;2024-03-22T02:10:00;5.30;99.90
5196;DHT22;2617;51.006;12.436;2024-03-22T02:15:02;5.30;99.90
5196;DHT22;2617;51.006;12.436;2024-03-22T02:20:06;5.40;99.90
5196;DHT22;2617;51.006;12.436;2024-03-22T02:25:09;5.40;99.90
5196;DHT22;2617;51.006;12.436;2024-03-22T02:30:11;5.50;99.90
5196;DHT22;2617;51.006;12.436;2024-03-22T02:35:14;5.50;99.90
5196;DHT22;2617;51.006;12.436;2024-03-22T02:40:16;5.50;99.90
5196;DHT22;2617;51.006;12.436;2024-03-22T02:45:18;5.40;99.90
5196;DHT22;2617;51.006;12.436;2024-03-22T02:50:21;5.40;99.90
5196;DHT22;2617;51.006;12.436;2024-03-22T02:55:25;5.40;99.90
5196;DHT22;2617;51.006;12.436;2024-03-22T03:00:27;5.40;99.90
5196;DHT22;2617;51.006;12.436;2024-03-22T03:05:29;5.50;99.90
5196;DHT22;2617;51.006;12.436;2024-03-22T03:10:32;5.50;99.90
5196;DHT22;2617;51.006;12.436;2024-03-22T03:15:34;5.60;99.90
5196;DHT22;2617;51.006;12.436;2024-03-22T03:20:37;5.70;99.90
5196;DHT22;2617;51.006;12.436;2024-03-22T03:25:39;5.70;99.90
5196;DHT22;2617;51.006;12.436;2024-03-22T03:30:41;5.80;99.90
5196;DHT22;2617;51.006;12.436;2024-03-22T03:35:46;5.80;99.90
5196;DHT22;2617;51.006;12.436;2024-03-22T03:40:48;5.90;99.90
5196;DHT22;2617;51.006;12.436;2024-03-22T03:45:50;5.90;99.90
5196;DHT22;2617;51.006;12.436;2024-03-22T03:50:54;5.90;99.90
5196;DHT22;2617;51.006;12.436;2024-03-22T03:55:56;5.90;99.90
5196;DHT22;2617;51.006;12.436;2024-03-22T04:00:59;5.90;99.90
5196;DHT22;2617;51.006;12.436;2024-03-22T04:06:01;6.00;99.90
5196;DHT22;2617;51.006;12.436;2024-03-22T04:11:04;6.00;99.90
5196;DHT22;2617;51.006;12.436;2024-03-22T04:16:06;6.00;99.90
5196;DHT22;2617;51.006;12.436;2024-03-22T04:21:08;6.00;99.90
5196;DHT22;2617;51.006;12.436;2024-03-22T04:26:12;6.00;99.90
5196;DHT22;2617;51.006;12.436;2024-03-22T04:31:14;6.00;99.90
5196;DHT22;2617;51.006;12.436;2024-03-22T04:36:16;6.00;99.90
5196;DHT22;2617;51.006;12.436;2024-03-22T04:41:19;6.10;99.90
5196;DHT22;2617;51.006;12.436;2024-03-22T04:46:21;6.10;99.90
5196;DHT22;2617;51.006;12.436;2024-03-22T04:51:24;6.10;99.90
5196;DHT22;2617;51.006;12.436;2024-03-22T04:56:26;6.10;99.90
5196;DHT22;2617;51.006;12.436;2024-03-22T05:01:28;6.10;99.90
5196;DHT22;2617;51.006;12.436;2024-03-22T05:06:31;6.20;99.90
5196;DHT22;2617;51.006;12.436;2024-03-22T05:11:34;6.30;99.90
5196;DHT22;2617;51.006;12.436;2024-03-22T05:16:36;6.30;99.90
5196;DHT22;2617;51.006;12.436;2024-03-22T05:21:39;6.40;99.90
5196;DHT22;2617;51.006;12.436;2024-03-22T05:26:41;6.40;99.90
5196;DHT22;2617;51.006;12.436;2024-03-22T05:31:47;6.40;99.90
5196;DHT22;2617;51.006;12.436;2024-03-22T05:36:49;6.50;99.90
5196;DHT22;2617;51.006;12.436;2024-03-22T05:41:51;6.60;99.90
5196;DHT22;2617;51.006;12.436;2024-03-22T05:46:53;6.70;99.90
5196;DHT22;2617;51.006;12.436;2024-03-22T05:51:57;6.70;99.90
5196;DHT22;2617;51.006;12.436;2024-03-22T05:56:59;6.90;99.90
5196;DHT22;2617;51.006;12.436;2024-03-22T06:02:02;6.90;99.90
5196;DHT22;2617;51.006;12.436;2024-03-22T06:07:04;7.00;99.90
5196;DHT22;2617;51.006;12.436;2024-03-22T06:12:07;7.20;99.90
5196;DHT22;2617;51.006;12.436;2024-03-22T06:17:10;7.20;99.90
5196;DHT22;2617;51.006;12.436;2024-03-22T06:22:12;7.30;99.90
5196;DHT22;2617;51.006;12.436;2024-03-22T06:27:14;7.50;99.90
5196;DHT22;2617;51.006;12.436;2024-03-22T06:32:17;7.70;99.90
5196;DHT22;2617;51.006;12.436;2024-03-22T06:37:19;7.70;99.90
5196;DHT22;2617;51.006;12.436;2024-03-22T06:42:21;7.90;99.90
5196;DHT22;2617;51.006;12.436;2024-03-22T06:47:25;8.30;99.90
5196;DHT22;2617;51.006;12.436;2024-03-22T06:52:27;8.30;99.90
5196;DHT22;2617;51.006;12.436;2024-03-22T06:57:29;8.50;99.90
5196;DHT22;2617;51.006;12.436;2024-03-22T07:02:32;8.70;99.90
5196;DHT22;2617;51.006;12.436;2024-03-22T07:07:35;9.00;99.90
5196;DHT22;2617;51.006;12.436;2024-03-22T07:12:37;9.20;99.90
5196;DHT22;2617;51.006;12.436;2024-03-22T07:17:39;9.30;99.90
5196;DHT22;2617;51.006;12.436;2024-03-22T07:22:42;9.50;99.90
5196;DHT22;2617;51.006;12.436;2024-03-22T07:27:45;9.50;99.90
5196;DHT22;2617;51.006;12.436;2024-03-22T07:32:47;9.70;99.90
5196;DHT22;2617;51.006;12.436;2024-03-22T07:37:50;9.70;99.90
5196;DHT22;2617;51.006;12.436;2024-03-22T07:42:53;9.70;99.90
5196;DHT22;2617;51.006;12.436;2024-03-22T07:47:55;9.70;99.90
5196;DHT22;2617;51.006;12.436;2024-03-22T07:52:58;9.90;99.90
5196;DHT22;2617;51.006;12.436;2024-03-22T07:58:01;9.90;99.90
5196;DHT22;2617;51.006;12.436;2024-03-22T08:03:04;10.00;99.90
5196;DHT22;2617;51.006;12.436;2024-03-22T08:08:06;10.20;99.90
5196;DHT22;2617;51.006;12.436;2024-03-22T08:13:09;10.50;99.90
5196;DHT22;2617;51.006;12.436;2024-03-22T08:18:12;10.50;99.90
5196;DHT22;2617;51.006;12.436;2024-03-22T08:23:15;10.80;99.90
5196;DHT22;2617;51.006;12.436;2024-03-22T08:28:19;10.80;99.90
5196;DHT22;2617;51.006;12.436;2024-03-22T08:33:21;11.10;99.90
5196;DHT22;2617;51.006;12.436;2024-03-22T08:38:23;11.30;99.90
5196;DHT22;2617;51.006;12.436;2024-03-22T08:43:26;11.40;99.90
5196;DHT22;2617;51.006;12.436;2024-03-22T08:48:28;11.60;99.90
5196;DHT22;2617;51.006;12.436;2024-03-22T08:53:31;12.10;99.90
5196;DHT22;2617;51.006;12.436;2024-03-22T08:58:34;12.10;99.90
5196;DHT22;2617;51.006;12.436;2024-03-22T09:03:36;12.30;99.90
5196;DHT22;2617;51.006;12.436;2024-03-22T09:08:39;12.50;99.90
5196;DHT22;2617;51.006;12.436;2024-03-22T09:13:41;12.60;99.90
5196;DHT22;2617;51.006;12.436;2024-03-22T09:18:44;12.80;99.90
5196;DHT22;2617;51.006;12.436;2024-03-22T09:23:46;13.20;99.90
5196;DHT22;2617;51.006;12.436;2024-03-22T09:28:48;13.70;99.90
5196;DHT22;2617;51.006;12.436;2024-03-22T09:33:51;14.10;99.90
5196;DHT22;2617;51.006;12.436;2024-03-22T09:38:54;14.40;99.90
5196;DHT22;2617;51.006;12.436;2024-03-22T09:43:58;14.40;99.90
5196;DHT22;2617;51.006;12.436;2024-03-22T09:49:00;14.40;99.90
5196;DHT22;2617;51.006;12.436;2024-03-22T09:54:05;14.40;99.90
5196;DHT22;2617;51.006;12.436;2024-03-22T09:59:13;14.50;99.90
5196;DHT22;2617;51.006;12.436;2024-03-22T10:04:16;14.60;99.90
5196;DHT22;2617;51.006;12.436;2024-03-22T10:09:19;14.60;99.90
5196;DHT22;2617;51.006;12.436;2024-03-22T10:14:22;14.70;99.90
5196;DHT22;2617;51.006;12.436;2024-03-22T10:19:29;14.70;99.90
5196;DHT22;2617;51.006;12.436;2024-03-22T10:24:33;14.70;99.70
5196;DHT22;2617;51.006;12.436;2024-03-22T10:29:40;14.90;99.90
5196;DHT22;2617;51.006;12.436;2024-03-22T10:34:46;15.30;98.90
5196;DHT22;2617;51.006;12.436;2024-03-22T10:39:49;15.60;98.80
5196;DHT22;2617;51.006;12.436;2024-03-22T10:44:52;15.60;98.70
5196;DHT22;2617;51.006;12.436;2024-03-22T10:50:03;15.80;96.80
5196;DHT22;2617;51.006;12.436;2024-03-22T10:55:14;15.70;97.50
5196;DHT22;2617;51.006;12.436;2024-03-22T11:00:37;15.60;97.40
5196;DHT22;2617;51.006;12.436;2024-03-22T11:05:49;15.70;97.40
5196;DHT22;2617;51.006;12.436;2024-03-22T11:11:10;15.60;97.80
5196;DHT22;2617;51.006;12.436;2024-03-22T11:16:15;15.60;97.80
5196;DHT22;2617;51.006;12.436;2024-03-22T11:21:18;15.70;97.60
5196;DHT22;2617;51.006;12.436;2024-03-22T11:26:22;15.60;97.60
5196;DHT22;2617;51.006;12.436;2024-03-22T11:31:24;15.50;98.20
5196;DHT22;2617;51.006;12.436;2024-03-22T11:36:27;15.60;98.50
5196;DHT22;2617;51.006;12.436;2024-03-22T11:41:30;15.40;98.20
5196;DHT22;2617;51.006;12.436;2024-03-22T11:46:33;15.40;98.70
5196;DHT22;2617;51.006;12.436;2024-03-22T11:51:38;15.40;98.60
5196;DHT22;2617;51.006;12.436;2024-03-22T11:56:40;15.40;99.20
5196;DHT22;2617;51.006;12.436;2024-03-22T12:01:43;15.60;98.90
5196;DHT22;2617;51.006;12.436;2024-03-22T12:06:46;15.70;99.20
5196;DHT22;2617;51.006;12.436;2024-03-22T12:11:50;15.90;98.50
5196;DHT22;2617;51.006;12.436;2024-03-22T12:16:52;15.90;98.50
5196;DHT22;2617;51.006;12.436;2024-03-22T12:21:55;16.00;99.30
5196;DHT22;2617;51.006;12.436;2024-03-22T12:26:59;16.00;99.50
5196;DHT22;2617;51.006;12.436;2024-03-22T12:32:04;16.00;99.40
5196;DHT22;2617;51.006;12.436;2024-03-22T12:37:10;16.10;99.20
5196;DHT22;2617;51.006;12.436;2024-03-22T12:42:14;16.10;99.50
5196;DHT22;2617;51.006;12.436;2024-03-22T12:47:18;16.30;99.40
5196;DHT22;2617;51.006;12.436;2024-03-22T12:52:21;16.40;98.00
5196;DHT22;2617;51.006;12.436;2024-03-22T12:57:23;16.40;97.90
5196;DHT22;2617;51.006;12.436;2024-03-22T13:02:26;16.50;97.50
5196;DHT22;2617;51.006;12.436;2024-03-22T13:07:30;16.60;96.90
5196;DHT22;2617;51.006;12.436;2024-03-22T13:12:33;16.60;96.80
5196;DHT22;2617;51.006;12.436;2024-03-22T13:17:36;16.60;97.40
5196;DHT22;2617;51.006;12.436;2024-03-22T13:22:41;16.60;97.50
5196;DHT22;2617;51.006;12.436;2024-03-22T13:27:43;16.50;97.10
5196;DHT22;2617;51.006;12.436;2024-03-22T13:32:46;16.40;97.20
5196;DHT22;2617;51.006;12.436;2024-03-22T13:37:49;16.40;97.70
5196;DHT22;2617;51.006;12.436;2024-03-22T13:42:53;16.70;98.40
5196;DHT22;2617;51.006;12.436;2024-03-22T13:47:55;16.70;98.40
5196;DHT22;2617;51.006;12.436;2024-03-22T13:52:58;16.60;98.40
5196;DHT22;2617;51.006;12.436;2024-03-22T13:58:01;16.50;99.20
5196;DHT22;2617;51.006;12.436;2024-03-22T14:03:04;16.40;99.90
5196;DHT22;2617;51.006;12.436;2024-03-22T14:08:07;16.40;99.90
5196;DHT22;2617;51.006;12.436;2024-03-22T14:13:10;16.60;99.90
5196;DHT22;2617;51.006;12.436;2024-03-22T14:18:14;16.60;99.90
5196;DHT22;2617;51.006;12.436;2024-03-22T14:23:16;16.60;99.90
5196;DHT22;2617;51.006;12.436;2024-03-22T14:28:18;16.60;99.90
5196;DHT22;2617;51.006;12.436;2024-03-22T14:33:21;16.60;99.90
5196;DHT22;2617;51.006;12.436;2024-03-22T14:38:23;16.60;99.90
5196;DHT22;2617;51.006;12.436;2024-03-22T14:43:26;16.60;99.90
5196;DHT22;2617;51.006;12.436;2024-03-22T14:48:28;16.40;99.90
5196;DHT22;2617;51.006;12.436;2024-03-22T14:53:32;16.30;99.90
5196;DHT22;2617;51.006;12.436;2024-03-22T14:58:35;15.90;99.90
5196;DHT22;2617;51.006;12.436;2024-03-22T15:03:37;15.90;99.90
5196;DHT22;2617;51.006;12.436;2024-03-22T15:08:40;15.80;99.90
5196;DHT22;2617;51.006;12.436;2024-03-22T15:13:42;15.50;99.90
5196;DHT22;2617;51.006;12.436;2024-03-22T15:18:45;15.30;99.90
5196;DHT22;2617;51.006;12.436;2024-03-22T15:23:47;15.10;99.90
5196;DHT22;2617;51.006;12.436;2024-03-22T15:28:49;14.80;99.90
5196;DHT22;2617;51.006;12.436;2024-03-22T15:33:53;14.40;99.90
5196;DHT22;2617;51.006;12.436;2024-03-22T15:38:55;14.40;99.90
5196;DHT22;2617;51.006;12.436;2024-03-22T15:43:58;14.20;99.90
5196;DHT22;2617;51.006;12.436;2024-03-22T15:49:02;13.80;99.90
5196;DHT22;2617;51.006;12.436;2024-03-22T15:54:04;13.80;99.90
5196;DHT22;2617;51.006;12.436;2024-03-22T15:59:07;13.80;99.90
5196;DHT22;2617;51.006;12.436;2024-03-22T16:04:09;13.70;99.90
5196;DHT22;2617;51.006;12.436;2024-03-22T16:09:12;13.60;99.90
5196;DHT22;2617;51.006;12.436;2024-03-22T16:14:15;13.60;99.90
5196;DHT22;2617;51.006;12.436;2024-03-22T16:19:18;13.50;99.90
5196;DHT22;2617;51.006;12.436;2024-03-22T16:24:20;13.50;99.90
5196;DHT22;2617;51.006;12.436;2024-03-22T16:29:23;13.50;99.90
5196;DHT22;2617;51.006;12.436;2024-03-22T16:34:26;13.40;99.90
5196;DHT22;2617;51.006;12.436;2024-03-22T16:39:28;13.40;99.90
5196;DHT22;2617;51.006;12.436;2024-03-22T16:44:31;13.40;99.90
5196;DHT22;2617;51.006;12.436;2024-03-22T16:49:35;13.40;99.90
5196;DHT22;2617;51.006;12.436;2024-03-22T16:54:37;13.30;99.90
5196;DHT22;2617;51.006;12.436;2024-03-22T16:59:40;13.30;99.90
5196;DHT22;2617;51.006;12.436;2024-03-22T17:04:42;13.30;99.90
5196;DHT22;2617;51.006;12.436;2024-03-22T17:09:46;13.20;99.90
5196;DHT22;2617;51.006;12.436;2024-03-22T17:14:48;13.20;99.90
5196;DHT22;2617;51.006;12.436;2024-03-22T17:19:51;13.20;99.90
5196;DHT22;2617;51.006;12.436;2024-03-22T17:24:53;13.20;99.90
5196;DHT22;2617;51.006;12.436;2024-03-22T17:29:56;13.20;99.90
5196;DHT22;2617;51.006;12.436;2024-03-22T17:34:58;13.20;99.90
5196;DHT22;2617;51.006;12.436;2024-03-22T17:40:01;13.10;99.90
5196;DHT22;2617;51.006;12.436;2024-03-22T17:45:04;13.00;99.90
5196;DHT22;2617;51.006;12.436;2024-03-22T17:50:07;12.90;99.90
5196;DHT22;2617;51.006;12.436;2024-03-22T17:55:09;12.90;99.90
5196;DHT22;2617;51.006;12.436;2024-03-22T18:00:12;12.80;99.90
5196;DHT22;2617;51.006;12.436;2024-03-22T18:05:15;12.80;99.90
5196;DHT22;2617;51.006;12.436;2024-03-22T18:10:18;12.80;99.90
5196;DHT22;2617;51.006;12.436;2024-03-22T18:15:22;12.70;99.90
5196;DHT22;2617;51.006;12.436;2024-03-22T18:20:24;12.70;99.90
5196;DHT22;2617;51.006;12.436;2024-03-22T18:25:27;12.70;99.90
5196;DHT22;2617;51.006;12.436;2024-03-22T18:30:30;12.60;99.90
5196;DHT22;2617;51.006;12.436;2024-03-22T18:35:33;12.50;99.90
5196;DHT22;2617;51.006;12.436;2024-03-22T18:40:36;12.50;99.90
5196;DHT22;2617;51.006;12.436;2024-03-22T18:45:38;12.50;99.90
5196;DHT22;2617;51.006;12.436;2024-03-22T18:50:41;12.40;99.90
5196;DHT22;2617;51.006;12.436;2024-03-22T18:55:43;12.30;99.90
5196;DHT22;2617;51.006;12.436;2024-03-22T19:00:46;12.30;99.90
5196;DHT22;2617;51.006;12.436;2024-03-22T19:05:49;12.20;99.90
5196;DHT22;2617;51.006;12.436;2024-03-22T19:10:51;12.10;99.90
5196;DHT22;2617;51.006;12.436;2024-03-22T19:15:54;12.10;99.90
5196;DHT22;2617;51.006;12.436;2024-03-22T19:20:57;12.10;99.90
5196;DHT22;2617;51.006;12.436;2024-03-22T19:26:00;12.10;99.90
5196;DHT22;2617;51.006;12.436;2024-03-22T19:31:03;12.10;99.90
5196;DHT22;2617;51.006;12.436;2024-03-22T19:36:05;12.00;99.90
5196;DHT22;2617;51.006;12.436;2024-03-22T19:41:08;11.90;99.90
5196;DHT22;2617;51.006;12.436;2024-03-22T19:46:10;11.90;99.90
5196;DHT22;2617;51.006;12.436;2024-03-22T19:51:13;11.90;99.90
5196;DHT22;2617;51.006;12.436;2024-03-22T19:56:15;11.90;99.90
5196;DHT22;2617;51.006;12.436;2024-03-22T20:01:18;11.80;99.90
5196;DHT22;2617;51.006;12.436;2024-03-22T20:06:20;11.60;99.90
5196;DHT22;2617;51.006;12.436;2024-03-22T20:11:23;11.50;99.90
5196;DHT22;2617;51.006;12.436;2024-03-22T20:16:26;11.10;99.90
5196;DHT22;2617;51.006;12.436;2024-03-22T20:21:28;11.20;99.90
5196;DHT22;2617;51.006;12.436;2024-03-22T20:26:31;11.10;99.90
5196;DHT22;2617;51.006;12.436;2024-03-22T20:31:34;11.00;99.90
5196;DHT22;2617;51.006;12.436;2024-03-22T20:36:36;10.80;99.90
